sensor_id;sensor_type;location;lat;lon;timestamp;P1;durP1;ratioP1;P2;durP2;ratioP2
23416;SDS011;11881;42.432;25.632;2023-12-20T00:00:55;18.63;;;12.17;;
23416;SDS011;11881;42.432;25.632;2023-12-20T00:03:20;19.93;;;11.53;;
23416;SDS011;11881;42.432;25.632;2023-12-20T00:05:46;21.47;;;11.57;;
23416;SDS011;11881;42.432;25.632;2023-12-20T00:08:12;19.40;;;11.90;;
23416;SDS011;11881;42.432;25.632;2023-12-20T00:10:38;16.83;;;11.00;;
23416;SDS011;11881;42.432;25.632;2023-12-20T00:13:03;17.07;;;11.47;;
23416;SDS011;11881;42.432;25.632;2023-12-20T00:15:29;18.70;;;11.33;;
23416;SDS011;11881;42.432;25.632;2023-12-20T00:17:54;17.23;;;11.17;;
23416;SDS011;11881;42.432;25.632;2023-12-20T00:20:20;19.20;;;11.20;;
23416;SDS011;11881;42.432;25.632;2023-12-20T00:22:45;17.93;;;10.90;;
23416;SDS011;11881;42.432;25.632;2023-12-20T00:25:11;18.73;;;11.13;;
23416;SDS011;11881;42.432;25.632;2023-12-20T00:27:36;19.27;;;10.80;;
23416;SDS011;11881;42.432;25.632;2023-12-20T00:30:02;17.43;;;10.17;;
23416;SDS011;11881;42.432;25.632;2023-12-20T00:32:27;15.20;;;9.97;;
23416;SDS011;11881;42.432;25.632;2023-12-20T00:34:53;16.60;;;9.83;;
23416;SDS011;11881;42.432;25.632;2023-12-20T00:37:18;16.53;;;9.17;;
23416;SDS011;11881;42.432;25.632;2023-12-20T00:39:44;15.13;;;9.13;;
23416;SDS011;11881;42.432;25.632;2023-12-20T00:42:09;16.33;;;9.70;;
23416;SDS011;11881;42.432;25.632;2023-12-20T00:44:35;13.57;;;9.23;;
23416;SDS011;11881;42.432;25.632;2023-12-20T00:47:00;14.87;;;8.97;;
23416;SDS011;11881;42.432;25.632;2023-12-20T00:49:26;14.87;;;8.57;;
23416;SDS011;11881;42.432;25.632;2023-12-20T00:51:51;11.33;;;8.07;;
23416;SDS011;11881;42.432;25.632;2023-12-20T00:54:17;13.13;;;8.30;;
23416;SDS011;11881;42.432;25.632;2023-12-20T00:56:43;14.03;;;8.13;;
23416;SDS011;11881;42.432;25.632;2023-12-20T00:59:09;12.17;;;8.17;;
23416;SDS011;11881;42.432;25.632;2023-12-20T01:01:34;12.93;;;7.80;;
23416;SDS011;11881;42.432;25.632;2023-12-20T01:03:59;13.33;;;7.77;;
23416;SDS011;11881;42.432;25.632;2023-12-20T01:06:25;11.80;;;7.10;;
23416;SDS011;11881;42.432;25.632;2023-12-20T01:08:50;9.87;;;6.83;;
23416;SDS011;11881;42.432;25.632;2023-12-20T01:11:16;10.20;;;6.50;;
23416;SDS011;11881;42.432;25.632;2023-12-20T01:13:41;14.33;;;7.17;;
23416;SDS011;11881;42.432;25.632;2023-12-20T01:16:08;10.27;;;6.90;;
23416;SDS011;11881;42.432;25.632;2023-12-20T01:18:35;9.57;;;6.47;;
23416;SDS011;11881;42.432;25.632;2023-12-20T01:21:01;9.00;;;6.30;;
23416;SDS011;11881;42.432;25.632;2023-12-20T01:23:28;10.17;;;6.23;;
23416;SDS011;11881;42.432;25.632;2023-12-20T01:25:53;12.07;;;6.93;;
23416;SDS011;11881;42.432;25.632;2023-12-20T01:28:19;10.63;;;6.50;;
23416;SDS011;11881;42.432;25.632;2023-12-20T01:30:45;10.47;;;5.97;;
23416;SDS011;11881;42.432;25.632;2023-12-20T01:33:10;10.43;;;5.97;;
23416;SDS011;11881;42.432;25.632;2023-12-20T01:35:36;9.53;;;6.03;;
23416;SDS011;11881;42.432;25.632;2023-12-20T01:38:02;9.20;;;6.23;;
23416;SDS011;11881;42.432;25.632;2023-12-20T01:40:28;9.90;;;5.33;;
23416;SDS011;11881;42.432;25.632;2023-12-20T01:43:04;9.57;;;5.90;;
23416;SDS011;11881;42.432;25.632;2023-12-20T01:45:33;9.13;;;6.00;;
23416;SDS011;11881;42.432;25.632;2023-12-20T01:47:58;10.90;;;6.10;;
23416;SDS011;11881;42.432;25.632;2023-12-20T01:50:25;11.17;;;6.10;;
23416;SDS011;11881;42.432;25.632;2023-12-20T01:52:51;10.33;;;6.10;;
23416;SDS011;11881;42.432;25.632;2023-12-20T01:55:21;9.17;;;6.10;;
23416;SDS011;11881;42.432;25.632;2023-12-20T01:57:47;11.00;;;6.30;;
23416;SDS011;11881;42.432;25.632;2023-12-20T02:00:12;10.97;;;6.53;;
23416;SDS011;11881;42.432;25.632;2023-12-20T02:02:40;10.33;;;6.03;;
23416;SDS011;11881;42.432;25.632;2023-12-20T02:05:09;8.47;;;6.07;;
23416;SDS011;11881;42.432;25.632;2023-12-20T02:07:35;11.03;;;6.40;;
23416;SDS011;11881;42.432;25.632;2023-12-20T02:10:03;9.17;;;5.80;;
23416;SDS011;11881;42.432;25.632;2023-12-20T02:12:29;10.83;;;5.77;;
23416;SDS011;11881;42.432;25.632;2023-12-20T02:14:55;9.10;;;5.80;;
23416;SDS011;11881;42.432;25.632;2023-12-20T02:17:21;9.27;;;5.90;;
23416;SDS011;11881;42.432;25.632;2023-12-20T02:19:47;9.60;;;5.97;;
23416;SDS011;11881;42.432;25.632;2023-12-20T02:22:13;12.37;;;5.80;;
23416;SDS011;11881;42.432;25.632;2023-12-20T02:24:39;9.60;;;6.27;;
23416;SDS011;11881;42.432;25.632;2023-12-20T02:27:05;8.77;;;6.00;;
23416;SDS011;11881;42.432;25.632;2023-12-20T02:29:32;12.43;;;6.43;;
23416;SDS011;11881;42.432;25.632;2023-12-20T02:31:58;8.57;;;6.30;;
23416;SDS011;11881;42.432;25.632;2023-12-20T02:34:24;9.60;;;5.50;;
23416;SDS011;11881;42.432;25.632;2023-12-20T02:36:49;10.23;;;6.20;;
23416;SDS011;11881;42.432;25.632;2023-12-20T02:39:15;10.63;;;6.13;;
23416;SDS011;11881;42.432;25.632;2023-12-20T02:41:41;9.57;;;6.07;;
23416;SDS011;11881;42.432;25.632;2023-12-20T02:44:06;10.10;;;6.40;;
23416;SDS011;11881;42.432;25.632;2023-12-20T02:46:31;10.73;;;6.87;;
23416;SDS011;11881;42.432;25.632;2023-12-20T02:48:57;9.23;;;6.03;;
23416;SDS011;11881;42.432;25.632;2023-12-20T02:51:22;8.73;;;6.47;;
23416;SDS011;11881;42.432;25.632;2023-12-20T02:53:48;8.10;;;5.67;;
23416;SDS011;11881;42.432;25.632;2023-12-20T02:56:13;8.20;;;5.83;;
23416;SDS011;11881;42.432;25.632;2023-12-20T02:58:39;11.70;;;7.00;;
23416;SDS011;11881;42.432;25.632;2023-12-20T03:01:05;10.77;;;6.20;;
23416;SDS011;11881;42.432;25.632;2023-12-20T03:03:31;9.63;;;6.30;;
23416;SDS011;11881;42.432;25.632;2023-12-20T03:05:56;9.33;;;5.90;;
23416;SDS011;11881;42.432;25.632;2023-12-20T03:08:22;9.33;;;6.23;;
23416;SDS011;11881;42.432;25.632;2023-12-20T03:10:48;9.80;;;6.30;;
23416;SDS011;11881;42.432;25.632;2023-12-20T03:13:13;9.97;;;6.70;;
23416;SDS011;11881;42.432;25.632;2023-12-20T03:15:39;11.77;;;6.90;;
23416;SDS011;11881;42.432;25.632;2023-12-20T03:18:05;11.37;;;7.00;;
23416;SDS011;11881;42.432;25.632;2023-12-20T03:20:30;11.47;;;6.87;;
23416;SDS011;11881;42.432;25.632;2023-12-20T03:23:02;10.07;;;6.80;;
23416;SDS011;11881;42.432;25.632;2023-12-20T03:25:28;9.47;;;6.60;;
23416;SDS011;11881;42.432;25.632;2023-12-20T03:27:54;12.43;;;7.20;;
23416;SDS011;11881;42.432;25.632;2023-12-20T03:30:20;9.10;;;6.47;;
23416;SDS011;11881;42.432;25.632;2023-12-20T03:32:45;10.87;;;7.33;;
23416;SDS011;11881;42.432;25.632;2023-12-20T03:35:11;11.80;;;7.57;;
23416;SDS011;11881;42.432;25.632;2023-12-20T03:37:37;11.27;;;7.60;;
23416;SDS011;11881;42.432;25.632;2023-12-20T03:40:03;12.03;;;7.60;;
23416;SDS011;11881;42.432;25.632;2023-12-20T03:42:28;15.37;;;8.10;;
23416;SDS011;11881;42.432;25.632;2023-12-20T03:44:54;13.80;;;8.33;;
23416;SDS011;11881;42.432;25.632;2023-12-20T03:47:19;12.20;;;7.27;;
23416;SDS011;11881;42.432;25.632;2023-12-20T03:49:45;13.23;;;8.63;;
23416;SDS011;11881;42.432;25.632;2023-12-20T03:52:10;14.73;;;8.33;;
23416;SDS011;11881;42.432;25.632;2023-12-20T03:54:36;13.50;;;8.47;;
23416;SDS011;11881;42.432;25.632;2023-12-20T03:57:02;13.83;;;8.30;;
23416;SDS011;11881;42.432;25.632;2023-12-20T03:59:28;15.60;;;8.47;;
23416;SDS011;11881;42.432;25.632;2023-12-20T04:01:53;14.53;;;8.63;;
23416;SDS011;11881;42.432;25.632;2023-12-20T04:04:19;14.97;;;10.07;;
23416;SDS011;11881;42.432;25.632;2023-12-20T04:06:44;14.37;;;9.17;;
23416;SDS011;11881;42.432;25.632;2023-12-20T04:09:10;12.57;;;7.77;;
23416;SDS011;11881;42.432;25.632;2023-12-20T04:11:38;12.13;;;7.60;;
23416;SDS011;11881;42.432;25.632;2023-12-20T04:16:49;10.53;;;6.43;;
23416;SDS011;11881;42.432;25.632;2023-12-20T04:19:14;11.23;;;6.73;;
23416;SDS011;11881;42.432;25.632;2023-12-20T04:21:40;15.37;;;7.23;;
23416;SDS011;11881;42.432;25.632;2023-12-20T04:24:05;9.53;;;6.20;;
23416;SDS011;11881;42.432;25.632;2023-12-20T04:26:31;10.23;;;6.90;;
23416;SDS011;11881;42.432;25.632;2023-12-20T04:28:56;8.93;;;6.17;;
23416;SDS011;11881;42.432;25.632;2023-12-20T04:31:22;10.20;;;6.40;;
23416;SDS011;11881;42.432;25.632;2023-12-20T04:33:47;10.90;;;6.60;;
23416;SDS011;11881;42.432;25.632;2023-12-20T04:36:13;10.33;;;6.57;;
23416;SDS011;11881;42.432;25.632;2023-12-20T04:38:38;10.30;;;6.73;;
23416;SDS011;11881;42.432;25.632;2023-12-20T04:41:04;9.63;;;6.17;;
23416;SDS011;11881;42.432;25.632;2023-12-20T04:43:29;12.03;;;6.50;;
23416;SDS011;11881;42.432;25.632;2023-12-20T04:45:55;12.63;;;7.30;;
23416;SDS011;11881;42.432;25.632;2023-12-20T04:48:20;12.17;;;7.40;;
23416;SDS011;11881;42.432;25.632;2023-12-20T04:50:46;11.13;;;7.63;;
23416;SDS011;11881;42.432;25.632;2023-12-20T04:53:11;13.90;;;7.57;;
23416;SDS011;11881;42.432;25.632;2023-12-20T04:55:37;10.90;;;7.50;;
23416;SDS011;11881;42.432;25.632;2023-12-20T04:58:02;13.53;;;8.20;;
23416;SDS011;11881;42.432;25.632;2023-12-20T05:00:28;13.17;;;8.17;;
23416;SDS011;11881;42.432;25.632;2023-12-20T05:02:53;13.20;;;8.27;;
23416;SDS011;11881;42.432;25.632;2023-12-20T05:05:19;14.30;;;9.10;;
23416;SDS011;11881;42.432;25.632;2023-12-20T05:07:44;13.53;;;9.10;;
23416;SDS011;11881;42.432;25.632;2023-12-20T05:10:10;14.43;;;8.80;;
23416;SDS011;11881;42.432;25.632;2023-12-20T05:12:35;13.73;;;8.73;;
23416;SDS011;11881;42.432;25.632;2023-12-20T05:15:01;17.00;;;9.87;;
23416;SDS011;11881;42.432;25.632;2023-12-20T05:17:26;16.07;;;10.33;;
23416;SDS011;11881;42.432;25.632;2023-12-20T05:19:52;15.00;;;10.37;;
23416;SDS011;11881;42.432;25.632;2023-12-20T05:22:18;16.63;;;9.63;;
23416;SDS011;11881;42.432;25.632;2023-12-20T05:24:44;16.33;;;10.27;;
23416;SDS011;11881;42.432;25.632;2023-12-20T05:27:10;16.97;;;9.90;;
23416;SDS011;11881;42.432;25.632;2023-12-20T05:29:36;14.37;;;9.20;;
23416;SDS011;11881;42.432;25.632;2023-12-20T05:32:02;15.27;;;9.83;;
23416;SDS011;11881;42.432;25.632;2023-12-20T05:34:29;18.60;;;11.20;;
23416;SDS011;11881;42.432;25.632;2023-12-20T05:36:55;18.47;;;11.07;;
23416;SDS011;11881;42.432;25.632;2023-12-20T05:39:21;21.13;;;11.57;;
23416;SDS011;11881;42.432;25.632;2023-12-20T05:41:47;18.77;;;12.03;;
23416;SDS011;11881;42.432;25.632;2023-12-20T05:44:13;21.17;;;11.80;;
23416;SDS011;11881;42.432;25.632;2023-12-20T05:46:38;19.30;;;11.20;;
23416;SDS011;11881;42.432;25.632;2023-12-20T05:49:05;19.60;;;11.83;;
23416;SDS011;11881;42.432;25.632;2023-12-20T05:51:30;21.43;;;12.47;;
23416;SDS011;11881;42.432;25.632;2023-12-20T05:53:56;21.57;;;12.30;;
23416;SDS011;11881;42.432;25.632;2023-12-20T05:56:21;22.03;;;12.30;;
23416;SDS011;11881;42.432;25.632;2023-12-20T05:58:47;21.90;;;13.07;;
23416;SDS011;11881;42.432;25.632;2023-12-20T06:01:14;20.43;;;12.57;;
23416;SDS011;11881;42.432;25.632;2023-12-20T06:03:43;22.23;;;13.03;;
23416;SDS011;11881;42.432;25.632;2023-12-20T06:06:08;21.63;;;12.30;;
23416;SDS011;11881;42.432;25.632;2023-12-20T06:08:35;22.13;;;12.57;;
23416;SDS011;11881;42.432;25.632;2023-12-20T06:11:01;19.63;;;12.07;;
23416;SDS011;11881;42.432;25.632;2023-12-20T06:13:27;19.27;;;12.00;;
23416;SDS011;11881;42.432;25.632;2023-12-20T06:15:54;21.33;;;12.57;;
23416;SDS011;11881;42.432;25.632;2023-12-20T06:18:20;20.93;;;11.93;;
23416;SDS011;11881;42.432;25.632;2023-12-20T06:20:45;21.50;;;12.07;;
23416;SDS011;11881;42.432;25.632;2023-12-20T06:23:11;19.70;;;11.70;;
23416;SDS011;11881;42.432;25.632;2023-12-20T06:25:36;23.17;;;11.50;;
23416;SDS011;11881;42.432;25.632;2023-12-20T06:28:02;18.20;;;11.20;;
23416;SDS011;11881;42.432;25.632;2023-12-20T06:30:27;18.27;;;10.80;;
23416;SDS011;11881;42.432;25.632;2023-12-20T06:32:53;21.47;;;11.60;;
23416;SDS011;11881;42.432;25.632;2023-12-20T06:35:20;21.77;;;12.20;;
23416;SDS011;11881;42.432;25.632;2023-12-20T06:37:45;21.97;;;12.43;;
23416;SDS011;11881;42.432;25.632;2023-12-20T06:40:11;18.87;;;11.93;;
23416;SDS011;11881;42.432;25.632;2023-12-20T06:42:37;18.93;;;11.33;;
23416;SDS011;11881;42.432;25.632;2023-12-20T06:45:03;17.87;;;11.27;;
23416;SDS011;11881;42.432;25.632;2023-12-20T06:47:29;17.93;;;11.40;;
23416;SDS011;11881;42.432;25.632;2023-12-20T06:49:55;17.57;;;10.77;;
23416;SDS011;11881;42.432;25.632;2023-12-20T06:52:20;16.40;;;10.20;;
23416;SDS011;11881;42.432;25.632;2023-12-20T06:54:45;17.60;;;9.63;;
23416;SDS011;11881;42.432;25.632;2023-12-20T06:57:11;16.87;;;9.67;;
23416;SDS011;11881;42.432;25.632;2023-12-20T06:59:43;16.23;;;9.67;;
23416;SDS011;11881;42.432;25.632;2023-12-20T07:02:09;18.40;;;9.63;;
23416;SDS011;11881;42.432;25.632;2023-12-20T07:04:39;13.70;;;9.03;;
23416;SDS011;11881;42.432;25.632;2023-12-20T07:07:05;14.23;;;8.97;;
23416;SDS011;11881;42.432;25.632;2023-12-20T07:09:30;16.37;;;9.27;;
23416;SDS011;11881;42.432;25.632;2023-12-20T07:11:57;14.53;;;10.00;;
23416;SDS011;11881;42.432;25.632;2023-12-20T07:14:23;15.07;;;9.33;;
23416;SDS011;11881;42.432;25.632;2023-12-20T07:16:48;15.70;;;10.43;;
23416;SDS011;11881;42.432;25.632;2023-12-20T07:19:14;20.53;;;11.00;;
23416;SDS011;11881;42.432;25.632;2023-12-20T07:21:39;19.73;;;10.57;;
23416;SDS011;11881;42.432;25.632;2023-12-20T07:24:05;17.97;;;10.37;;
23416;SDS011;11881;42.432;25.632;2023-12-20T07:26:31;20.00;;;10.47;;
23416;SDS011;11881;42.432;25.632;2023-12-20T07:28:56;15.57;;;9.83;;
23416;SDS011;11881;42.432;25.632;2023-12-20T07:31:23;24.77;;;10.17;;
23416;SDS011;11881;42.432;25.632;2023-12-20T07:33:49;17.77;;;10.13;;
23416;SDS011;11881;42.432;25.632;2023-12-20T07:36:14;18.93;;;9.40;;
23416;SDS011;11881;42.432;25.632;2023-12-20T07:38:40;34.20;;;19.23;;
23416;SDS011;11881;42.432;25.632;2023-12-20T07:41:09;66.33;;;35.33;;
23416;SDS011;11881;42.432;25.632;2023-12-20T07:43:34;64.93;;;35.20;;
23416;SDS011;11881;42.432;25.632;2023-12-20T07:46:06;66.90;;;33.53;;
23416;SDS011;11881;42.432;25.632;2023-12-20T07:48:34;61.57;;;33.07;;
23416;SDS011;11881;42.432;25.632;2023-12-20T07:51:00;61.50;;;36.57;;
23416;SDS011;11881;42.432;25.632;2023-12-20T07:53:26;60.97;;;35.87;;
23416;SDS011;11881;42.432;25.632;2023-12-20T07:55:52;62.97;;;36.00;;
23416;SDS011;11881;42.432;25.632;2023-12-20T07:58:18;61.40;;;36.70;;
23416;SDS011;11881;42.432;25.632;2023-12-20T08:00:43;62.60;;;34.97;;
23416;SDS011;11881;42.432;25.632;2023-12-20T08:03:09;71.23;;;34.93;;
23416;SDS011;11881;42.432;25.632;2023-12-20T08:05:34;54.60;;;31.97;;
23416;SDS011;11881;42.432;25.632;2023-12-20T08:08:00;57.97;;;30.83;;
23416;SDS011;11881;42.432;25.632;2023-12-20T08:10:25;48.43;;;29.23;;
23416;SDS011;11881;42.432;25.632;2023-12-20T08:12:52;54.27;;;28.97;;
23416;SDS011;11881;42.432;25.632;2023-12-20T08:15:17;50.27;;;26.53;;
23416;SDS011;11881;42.432;25.632;2023-12-20T08:17:43;46.47;;;25.83;;
23416;SDS011;11881;42.432;25.632;2023-12-20T08:20:08;46.13;;;27.27;;
23416;SDS011;11881;42.432;25.632;2023-12-20T08:22:34;53.73;;;28.17;;
23416;SDS011;11881;42.432;25.632;2023-12-20T08:24:59;50.63;;;28.77;;
23416;SDS011;11881;42.432;25.632;2023-12-20T08:27:25;52.30;;;27.77;;
23416;SDS011;11881;42.432;25.632;2023-12-20T08:29:51;53.10;;;27.93;;
23416;SDS011;11881;42.432;25.632;2023-12-20T08:32:16;45.67;;;25.70;;
23416;SDS011;11881;42.432;25.632;2023-12-20T08:34:41;42.03;;;25.60;;
23416;SDS011;11881;42.432;25.632;2023-12-20T08:37:07;42.00;;;24.23;;
23416;SDS011;11881;42.432;25.632;2023-12-20T08:39:32;42.40;;;25.63;;
23416;SDS011;11881;42.432;25.632;2023-12-20T08:41:58;48.57;;;26.67;;
23416;SDS011;11881;42.432;25.632;2023-12-20T08:44:24;43.53;;;26.93;;
23416;SDS011;11881;42.432;25.632;2023-12-20T08:46:50;48.63;;;26.50;;
23416;SDS011;11881;42.432;25.632;2023-12-20T08:49:15;52.20;;;26.63;;
23416;SDS011;11881;42.432;25.632;2023-12-20T08:51:40;51.93;;;28.53;;
23416;SDS011;11881;42.432;25.632;2023-12-20T08:54:07;48.33;;;28.17;;
23416;SDS011;11881;42.432;25.632;2023-12-20T08:56:35;56.77;;;29.53;;
23416;SDS011;11881;42.432;25.632;2023-12-20T08:59:01;47.27;;;28.97;;
23416;SDS011;11881;42.432;25.632;2023-12-20T09:01:26;63.13;;;34.80;;
23416;SDS011;11881;42.432;25.632;2023-12-20T09:03:52;64.07;;;36.30;;
23416;SDS011;11881;42.432;25.632;2023-12-20T09:06:17;65.33;;;36.33;;
23416;SDS011;11881;42.432;25.632;2023-12-20T09:08:42;58.60;;;37.40;;
23416;SDS011;11881;42.432;25.632;2023-12-20T09:11:08;67.53;;;37.57;;
23416;SDS011;11881;42.432;25.632;2023-12-20T09:13:33;70.50;;;40.53;;
23416;SDS011;11881;42.432;25.632;2023-12-20T09:15:59;65.80;;;41.13;;
23416;SDS011;11881;42.432;25.632;2023-12-20T09:18:25;74.27;;;39.83;;
23416;SDS011;11881;42.432;25.632;2023-12-20T09:20:50;67.87;;;38.60;;
23416;SDS011;11881;42.432;25.632;2023-12-20T09:23:16;65.27;;;36.53;;
23416;SDS011;11881;42.432;25.632;2023-12-20T09:25:43;71.13;;;38.07;;
23416;SDS011;11881;42.432;25.632;2023-12-20T09:28:09;61.60;;;36.53;;
23416;SDS011;11881;42.432;25.632;2023-12-20T09:30:35;63.87;;;37.67;;
23416;SDS011;11881;42.432;25.632;2023-12-20T09:33:04;65.50;;;39.70;;
23416;SDS011;11881;42.432;25.632;2023-12-20T09:35:30;68.47;;;40.37;;
23416;SDS011;11881;42.432;25.632;2023-12-20T09:37:55;68.33;;;37.93;;
23416;SDS011;11881;42.432;25.632;2023-12-20T09:40:21;70.90;;;38.27;;
23416;SDS011;11881;42.432;25.632;2023-12-20T09:42:51;68.90;;;38.10;;
23416;SDS011;11881;42.432;25.632;2023-12-20T09:45:20;64.77;;;36.93;;
23416;SDS011;11881;42.432;25.632;2023-12-20T09:47:50;71.03;;;33.30;;
23416;SDS011;11881;42.432;25.632;2023-12-20T09:50:18;60.67;;;33.13;;
23416;SDS011;11881;42.432;25.632;2023-12-20T09:52:45;64.50;;;35.03;;
23416;SDS011;11881;42.432;25.632;2023-12-20T09:55:14;58.90;;;35.50;;
23416;SDS011;11881;42.432;25.632;2023-12-20T09:57:42;64.00;;;38.77;;
23416;SDS011;11881;42.432;25.632;2023-12-20T10:00:07;70.00;;;45.47;;
23416;SDS011;11881;42.432;25.632;2023-12-20T10:02:33;88.57;;;53.33;;
23416;SDS011;11881;42.432;25.632;2023-12-20T10:05:03;91.57;;;54.13;;
23416;SDS011;11881;42.432;25.632;2023-12-20T10:07:34;80.50;;;45.13;;
23416;SDS011;11881;42.432;25.632;2023-12-20T10:10:00;77.03;;;45.20;;
23416;SDS011;11881;42.432;25.632;2023-12-20T10:12:27;73.53;;;40.57;;
23416;SDS011;11881;42.432;25.632;2023-12-20T10:14:53;67.00;;;39.73;;
23416;SDS011;11881;42.432;25.632;2023-12-20T10:17:18;61.43;;;36.87;;
23416;SDS011;11881;42.432;25.632;2023-12-20T10:19:44;52.70;;;32.40;;
23416;SDS011;11881;42.432;25.632;2023-12-20T10:22:09;56.07;;;31.60;;
23416;SDS011;11881;42.432;25.632;2023-12-20T10:24:35;58.53;;;30.80;;
23416;SDS011;11881;42.432;25.632;2023-12-20T10:27:01;52.43;;;30.83;;
23416;SDS011;11881;42.432;25.632;2023-12-20T10:29:33;50.60;;;28.80;;
23416;SDS011;11881;42.432;25.632;2023-12-20T10:32:00;39.43;;;23.97;;
23416;SDS011;11881;42.432;25.632;2023-12-20T10:34:47;31.13;;;20.97;;
23416;SDS011;11881;42.432;25.632;2023-12-20T10:37:12;35.73;;;20.23;;
23416;SDS011;11881;42.432;25.632;2023-12-20T10:39:38;33.57;;;22.27;;
23416;SDS011;11881;42.432;25.632;2023-12-20T10:42:04;32.57;;;19.87;;
23416;SDS011;11881;42.432;25.632;2023-12-20T10:44:30;30.13;;;19.40;;
23416;SDS011;11881;42.432;25.632;2023-12-20T10:46:56;35.73;;;20.67;;
23416;SDS011;11881;42.432;25.632;2023-12-20T10:49:24;33.97;;;20.27;;
23416;SDS011;11881;42.432;25.632;2023-12-20T10:51:51;31.77;;;19.23;;
23416;SDS011;11881;42.432;25.632;2023-12-20T10:54:19;30.53;;;18.60;;
23416;SDS011;11881;42.432;25.632;2023-12-20T10:56:45;34.57;;;18.80;;
23416;SDS011;11881;42.432;25.632;2023-12-20T10:59:11;29.13;;;18.37;;
23416;SDS011;11881;42.432;25.632;2023-12-20T11:01:39;30.07;;;17.47;;
23416;SDS011;11881;42.432;25.632;2023-12-20T11:04:06;32.37;;;17.80;;
23416;SDS011;11881;42.432;25.632;2023-12-20T11:17:13;32.20;;;18.67;;
23416;SDS011;11881;42.432;25.632;2023-12-20T11:22:25;28.40;;;17.63;;
23416;SDS011;11881;42.432;25.632;2023-12-20T11:24:53;26.03;;;17.03;;
23416;SDS011;11881;42.432;25.632;2023-12-20T11:27:22;27.43;;;16.53;;
23416;SDS011;11881;42.432;25.632;2023-12-20T11:29:52;26.60;;;17.10;;
23416;SDS011;11881;42.432;25.632;2023-12-20T11:34:59;25.23;;;16.53;;
23416;SDS011;11881;42.432;25.632;2023-12-20T11:37:45;27.20;;;16.53;;
23416;SDS011;11881;42.432;25.632;2023-12-20T11:40:17;29.10;;;16.83;;
23416;SDS011;11881;42.432;25.632;2023-12-20T11:42:49;23.23;;;15.83;;
23416;SDS011;11881;42.432;25.632;2023-12-20T11:45:23;21.53;;;14.87;;
23416;SDS011;11881;42.432;25.632;2023-12-20T11:47:50;24.60;;;15.47;;
23416;SDS011;11881;42.432;25.632;2023-12-20T11:50:17;24.17;;;15.77;;
23416;SDS011;11881;42.432;25.632;2023-12-20T11:52:43;26.50;;;14.97;;
23416;SDS011;11881;42.432;25.632;2023-12-20T11:55:09;23.07;;;14.47;;
23416;SDS011;11881;42.432;25.632;2023-12-20T11:57:35;22.50;;;14.97;;
23416;SDS011;11881;42.432;25.632;2023-12-20T12:00:01;24.43;;;15.17;;
23416;SDS011;11881;42.432;25.632;2023-12-20T12:02:28;23.40;;;15.53;;
23416;SDS011;11881;42.432;25.632;2023-12-20T12:04:53;26.43;;;15.80;;
23416;SDS011;11881;42.432;25.632;2023-12-20T12:07:20;24.73;;;15.67;;
23416;SDS011;11881;42.432;25.632;2023-12-20T12:09:45;24.13;;;15.40;;
23416;SDS011;11881;42.432;25.632;2023-12-20T12:12:11;23.40;;;15.43;;
23416;SDS011;11881;42.432;25.632;2023-12-20T12:14:37;22.37;;;16.23;;
23416;SDS011;11881;42.432;25.632;2023-12-20T12:17:04;25.47;;;15.20;;
23416;SDS011;11881;42.432;25.632;2023-12-20T12:19:30;26.53;;;16.13;;
23416;SDS011;11881;42.432;25.632;2023-12-20T12:24:45;25.93;;;16.00;;
23416;SDS011;11881;42.432;25.632;2023-12-20T12:27:11;26.03;;;15.77;;
23416;SDS011;11881;42.432;25.632;2023-12-20T12:29:41;23.00;;;14.20;;
23416;SDS011;11881;42.432;25.632;2023-12-20T12:32:24;25.60;;;15.33;;
23416;SDS011;11881;42.432;25.632;2023-12-20T12:34:50;24.43;;;15.47;;
23416;SDS011;11881;42.432;25.632;2023-12-20T12:37:16;28.27;;;15.97;;
23416;SDS011;11881;42.432;25.632;2023-12-20T12:39:42;26.80;;;16.50;;
23416;SDS011;11881;42.432;25.632;2023-12-20T12:42:07;24.53;;;16.80;;
23416;SDS011;11881;42.432;25.632;2023-12-20T12:44:33;24.03;;;15.80;;
23416;SDS011;11881;42.432;25.632;2023-12-20T12:46:58;24.83;;;16.53;;
23416;SDS011;11881;42.432;25.632;2023-12-20T12:49:24;22.57;;;15.57;;
23416;SDS011;11881;42.432;25.632;2023-12-20T12:51:49;24.77;;;16.60;;
23416;SDS011;11881;42.432;25.632;2023-12-20T12:54:15;26.17;;;16.17;;
23416;SDS011;11881;42.432;25.632;2023-12-20T12:56:43;24.37;;;16.77;;
23416;SDS011;11881;42.432;25.632;2023-12-20T12:59:09;26.17;;;16.93;;
23416;SDS011;11881;42.432;25.632;2023-12-20T13:01:36;23.73;;;16.37;;
23416;SDS011;11881;42.432;25.632;2023-12-20T13:04:01;26.80;;;16.23;;
23416;SDS011;11881;42.432;25.632;2023-12-20T13:06:29;28.33;;;15.90;;
23416;SDS011;11881;42.432;25.632;2023-12-20T13:08:54;22.97;;;15.33;;
23416;SDS011;11881;42.432;25.632;2023-12-20T13:11:20;22.97;;;15.50;;
23416;SDS011;11881;42.432;25.632;2023-12-20T13:13:45;29.93;;;15.77;;
23416;SDS011;11881;42.432;25.632;2023-12-20T13:16:11;28.80;;;16.07;;
23416;SDS011;11881;42.432;25.632;2023-12-20T13:18:37;27.80;;;16.17;;
23416;SDS011;11881;42.432;25.632;2023-12-20T13:21:07;25.13;;;15.30;;
23416;SDS011;11881;42.432;25.632;2023-12-20T13:23:33;28.57;;;16.53;;
23416;SDS011;11881;42.432;25.632;2023-12-20T13:25:58;27.63;;;16.70;;
23416;SDS011;11881;42.432;25.632;2023-12-20T13:28:23;25.40;;;16.37;;
23416;SDS011;11881;42.432;25.632;2023-12-20T13:30:49;28.70;;;16.43;;
23416;SDS011;11881;42.432;25.632;2023-12-20T13:33:14;29.10;;;16.80;;
23416;SDS011;11881;42.432;25.632;2023-12-20T13:35:40;28.63;;;16.37;;
23416;SDS011;11881;42.432;25.632;2023-12-20T13:38:05;30.03;;;17.10;;
23416;SDS011;11881;42.432;25.632;2023-12-20T13:40:31;29.20;;;16.93;;
23416;SDS011;11881;42.432;25.632;2023-12-20T13:42:57;28.90;;;16.47;;
23416;SDS011;11881;42.432;25.632;2023-12-20T13:45:23;29.43;;;17.23;;
23416;SDS011;11881;42.432;25.632;2023-12-20T13:47:50;31.40;;;19.30;;
23416;SDS011;11881;42.432;25.632;2023-12-20T13:50:16;32.70;;;18.73;;
23416;SDS011;11881;42.432;25.632;2023-12-20T13:52:41;34.13;;;19.77;;
23416;SDS011;11881;42.432;25.632;2023-12-20T13:55:07;34.93;;;19.70;;
23416;SDS011;11881;42.432;25.632;2023-12-20T13:57:33;36.50;;;18.77;;
23416;SDS011;11881;42.432;25.632;2023-12-20T13:59:58;37.17;;;19.33;;
23416;SDS011;11881;42.432;25.632;2023-12-20T14:02:24;35.60;;;21.07;;
23416;SDS011;11881;42.432;25.632;2023-12-20T14:04:52;35.03;;;19.67;;
23416;SDS011;11881;42.432;25.632;2023-12-20T14:07:17;35.40;;;19.90;;
23416;SDS011;11881;42.432;25.632;2023-12-20T14:09:43;34.40;;;20.37;;
23416;SDS011;11881;42.432;25.632;2023-12-20T14:12:10;31.27;;;19.43;;
23416;SDS011;11881;42.432;25.632;2023-12-20T14:14:36;34.30;;;20.13;;
23416;SDS011;11881;42.432;25.632;2023-12-20T14:17:02;30.23;;;20.37;;
23416;SDS011;11881;42.432;25.632;2023-12-20T14:19:27;38.97;;;21.33;;
23416;SDS011;11881;42.432;25.632;2023-12-20T14:21:53;37.80;;;22.30;;
23416;SDS011;11881;42.432;25.632;2023-12-20T14:24:18;35.40;;;21.47;;
23416;SDS011;11881;42.432;25.632;2023-12-20T14:26:44;39.97;;;22.80;;
23416;SDS011;11881;42.432;25.632;2023-12-20T14:29:09;39.50;;;22.53;;